Ship Status Report: callsign WAM8729

sailwx.info

Track history (hours):
 
Tides and Currents Weather Stations Pressure Air Temp Water Temp Dewpoint Dewpoint Depression Visibility Wind Speed Wind Dir Waves Ship Positions

Callsign WAM8729 (name unknown)

Owner: REGENTS OF THE UNIVERSITY OF CALIFORNIA, OAKLAND, CA. More information available from US FCC via Universal Licensing System and Coast Guard Vessel Documentation Center.

Last reported at 2018-May-24 18:36 UTC. Time now 2018-May-24 21:20 UTC.
Position N 34°24' W 119°51'.

Length 7 m.

Type: Diving. MMSI: 338140283.

Date/timePositionNaut miles runAvg speedWind from/ knotsBaromVisibWave heightAir tempDewpointWater temp
2018-May-24 18:36N 34°24' W 119°51'0 0.0
2018-May-24 18:22N 34°24' W 119°51'1 1.0
2018-May-24 17:30N 34°24' W 119°50'5 4.9
2018-May-24 16:32N 34°26' W 119°55'0 1.0
2018-May-24 16:22N 34°26' W 119°55'0 0.0
2018-May-24 15:36N 34°26' W 119°55'417.7
2018-May-24 15:23N 34°24' W 119°51'1 0.1
2018-May-23 20:42N 34°25' W 119°50'725.4
2018-May-23 20:25N 34°24' W 119°42'1 2.2
2018-May-23 20:00N 34°24' W 119°41'1323.2
2018-May-23 19:26N 34°11' W 119°40'815.6
2018-May-23 18:54N 34°02' W 119°42'0 0.8
2018-May-23 18:24N 34°02' W 119°42'0 0.0
2018-May-23 17:51N 34°02' W 119°42'0 0.0
2018-May-23 17:06N 34°02' W 119°42'0 0.0
2018-May-23 16:59N 34°02' W 119°42'0 0.0
2018-May-23 16:29N 34°02' W 119°42'1118.8
2018-May-23 15:54N 34°13' W 119°42'921.7
2018-May-23 15:30N 34°22' W 119°41'8 0.5
2018-May-22 22:05N 34°24' W 119°51'8 6.9
2018-May-22 20:59N 34°24' W 119°41'2 0.6
2018-May-22 17:15N 34°24' W 119°44'0 0.0
2018-May-22 17:00N 34°24' W 119°44'0 0.0
2018-May-22 16:19N 34°24' W 119°44'  
2018-May-16 20:45N 34°25' W 119°50'0 0.5
2018-May-16 20:06N 34°25' W 119°50'0 0.0
2018-May-16 19:56N 34°25' W 119°50'0 0.3
2018-May-16 19:21N 34°25' W 119°50'0 0.0
2018-May-16 18:57N 34°25' W 119°50'4 8.2
2018-May-16 18:30N 34°21' W 119°51'4 6.3
2018-May-16 17:56N 34°18' W 119°52'712.2
2018-May-16 17:24N 34°24' W 119°54'1 0.4
2018-May-16 15:57N 34°24' W 119°53'0 0.8
2018-May-16 15:29N 34°24' W 119°53'2 0.1
2018-May-15 23:26N 34°24' W 119°51'813.9
2018-May-15 22:53N 34°24' W 119°42'2 2.0
2018-May-15 21:55N 34°24' W 119°44'0 0.0
2018-May-15 20:59N 34°24' W 119°44'  
Track history (hours):
 
Tides and Currents Weather Stations Pressure Air Temp Water Temp Dewpoint Dewpoint Depression Visibility Wind Speed Wind Dir Waves Ship Positions

Callsign WAM8729 (name unknown)

Owner: REGENTS OF THE UNIVERSITY OF CALIFORNIA, OAKLAND, CA. More information available from US FCC via Universal Licensing System and Coast Guard Vessel Documentation Center.

Last reported at 2018-May-24 18:36 UTC. Time now 2018-May-24 21:20 UTC.
Position N 34°24' W 119°51'.

Length 7 m.

Type: Diving. MMSI: 338140283.

Date/timePositionNaut miles runAvg speedWind from/ knotsBaromVisibWave heightAir tempDewpointWater temp
2018-May-24 18:36N 34°24' W 119°51'0 0.0
2018-May-24 18:22N 34°24' W 119°51'1 1.0
2018-May-24 17:30N 34°24' W 119°50'5 4.9
2018-May-24 16:32N 34°26' W 119°55'0 1.0
2018-May-24 16:22N 34°26' W 119°55'0 0.0
2018-May-24 15:36N 34°26' W 119°55'417.7
2018-May-24 15:23N 34°24' W 119°51'1 0.1
2018-May-23 20:42N 34°25' W 119°50'725.4
2018-May-23 20:25N 34°24' W 119°42'1 2.2
2018-May-23 20:00N 34°24' W 119°41'1323.2
2018-May-23 19:26N 34°11' W 119°40'815.6
2018-May-23 18:54N 34°02' W 119°42'0 0.8
2018-May-23 18:24N 34°02' W 119°42'0 0.0
2018-May-23 17:51N 34°02' W 119°42'0 0.0
2018-May-23 17:06N 34°02' W 119°42'0 0.0
2018-May-23 16:59N 34°02' W 119°42'0 0.0
2018-May-23 16:29N 34°02' W 119°42'1118.8
2018-May-23 15:54N 34°13' W 119°42'921.7
2018-May-23 15:30N 34°22' W 119°41'8 0.5
2018-May-22 22:05N 34°24' W 119°51'8 6.9
2018-May-22 20:59N 34°24' W 119°41'2 0.6
2018-May-22 17:15N 34°24' W 119°44'0 0.0
2018-May-22 17:00N 34°24' W 119°44'0 0.0
2018-May-22 16:19N 34°24' W 119°44'  
2018-May-16 20:45N 34°25' W 119°50'0 0.5
2018-May-16 20:06N 34°25' W 119°50'0 0.0
2018-May-16 19:56N 34°25' W 119°50'0 0.3
2018-May-16 19:21N 34°25' W 119°50'0 0.0
2018-May-16 18:57N 34°25' W 119°50'4 8.2
2018-May-16 18:30N 34°21' W 119°51'4 6.3
2018-May-16 17:56N 34°18' W 119°52'712.2
2018-May-16 17:24N 34°24' W 119°54'1 0.4
2018-May-16 15:57N 34°24' W 119°53'0 0.8
2018-May-16 15:29N 34°24' W 119°53'2 0.1
2018-May-15 23:26N 34°24' W 119°51'813.9
2018-May-15 22:53N 34°24' W 119°42'2 2.0
2018-May-15 21:55N 34°24' W 119°44'0 0.0
2018-May-15 20:59N 34°24' W 119°44'  

Dump ship's entire track history